createdAt,value
2019-03-26T00:00:26.935Z,83.00
2019-03-26T00:02:56.138Z,84.14
2019-03-26T00:05:24.621Z,82.33
2019-03-26T00:07:53.684Z,82.37
2019-03-26T00:10:22.160Z,82.80
2019-03-26T00:12:50.649Z,83.33
2019-03-26T00:15:19.128Z,82.54
2019-03-26T00:17:47.605Z,83.57
2019-03-26T00:20:16.068Z,82.98
2019-03-26T00:22:44.589Z,83.96
2019-03-26T00:25:13.069Z,83.31
2019-03-26T00:27:41.568Z,84.65
2019-03-26T00:30:10.763Z,83.96
2019-03-26T00:32:39.320Z,84.24
2019-03-26T00:35:10.721Z,84.00
2019-03-26T00:37:39.222Z,84.01
2019-03-26T00:40:08.057Z,83.48
2019-03-26T00:42:36.548Z,84.34
2019-03-26T00:45:06.955Z,83.54
2019-03-26T00:47:35.450Z,84.36
2019-03-26T00:50:04.959Z,84.02
2019-03-26T00:52:33.455Z,83.82
2019-03-26T00:55:01.926Z,84.53
2019-03-26T00:57:30.434Z,84.11
2019-03-26T00:59:58.896Z,83.78
2019-03-26T01:02:27.376Z,85.83
2019-03-26T01:04:55.924Z,84.10
2019-03-26T01:07:24.472Z,85.20
2019-03-26T01:09:52.942Z,84.82
2019-03-26T01:12:21.454Z,84.67
2019-03-26T01:14:49.935Z,85.68
2019-03-26T01:17:18.436Z,83.95
2019-03-26T01:19:46.887Z,84.42
2019-03-26T01:22:15.369Z,85.53
2019-03-26T01:24:43.848Z,85.12
2019-03-26T01:27:12.320Z,85.59
2019-03-26T01:29:40.815Z,85.67
2019-03-26T01:32:09.275Z,86.13
2019-03-26T01:34:45.937Z,88.34
2019-03-26T01:37:07.956Z,87.52
2019-03-26T01:39:36.459Z,87.73
2019-03-26T01:42:05.403Z,87.92
2019-03-26T01:44:33.884Z,87.43
2019-03-26T01:47:02.350Z,86.38
2019-03-26T01:49:30.847Z,86.91
2019-03-26T01:51:59.315Z,86.50
2019-03-26T01:54:27.816Z,85.80
2019-03-26T01:56:56.291Z,86.29
2019-03-26T01:59:24.772Z,86.21
2019-03-26T02:01:53.241Z,87.10
2019-03-26T02:04:21.738Z,86.50
2019-03-26T02:06:50.204Z,86.46
2019-03-26T02:09:18.705Z,87.23
2019-03-26T02:11:47.165Z,86.52
2019-03-26T02:14:15.694Z,87.15
2019-03-26T02:16:44.176Z,87.07
2019-03-26T02:19:12.692Z,86.77
2019-03-26T02:21:41.167Z,86.41
2019-03-26T02:24:09.665Z,88.55
2019-03-26T02:26:38.125Z,87.91
2019-03-26T02:29:06.631Z,86.93
2019-03-26T02:31:35.117Z,86.43
2019-03-26T02:34:03.605Z,86.61
2019-03-26T02:36:32.083Z,87.60
2019-03-26T02:39:00.611Z,88.42
2019-03-26T02:41:29.226Z,87.06
2019-03-26T02:43:57.733Z,86.23
2019-03-26T02:46:26.209Z,86.65
2019-03-26T02:48:54.723Z,88.38
2019-03-26T02:51:23.226Z,88.63
2019-03-26T02:53:51.716Z,88.29
2019-03-26T02:56:20.220Z,87.22
2019-03-26T02:58:48.696Z,88.07
2019-03-26T03:01:17.200Z,87.49
2019-03-26T03:03:45.748Z,86.66
2019-03-26T03:06:14.254Z,86.77
2019-03-26T03:08:42.726Z,86.84
2019-03-26T03:11:11.224Z,86.50
2019-03-26T03:13:39.686Z,87.93
2019-03-26T03:16:08.195Z,87.78
2019-03-26T03:18:36.681Z,87.71
2019-03-26T03:21:05.163Z,87.18
2019-03-26T03:23:33.645Z,86.91
2019-03-26T03:26:02.120Z,87.50
2019-03-26T03:28:30.609Z,87.94
2019-03-26T03:30:59.099Z,87.84
2019-03-26T03:33:27.568Z,88.17
2019-03-26T03:35:56.051Z,88.21
2019-03-26T03:38:24.527Z,87.99
2019-03-26T03:40:53.023Z,89.33
2019-03-26T03:43:21.529Z,88.99
2019-03-26T03:45:50.235Z,88.26
2019-03-26T03:48:19.463Z,88.61
2019-03-26T03:50:48.196Z,88.48
2019-03-26T03:53:19.373Z,88.04
2019-03-26T03:55:50.618Z,88.20
2019-03-26T03:58:21.857Z,87.78
2019-03-26T04:00:50.359Z,88.44
2019-03-26T04:03:18.840Z,89.66
2019-03-26T04:05:47.324Z,88.89
2019-03-26T04:08:15.790Z,88.56
2019-03-26T04:10:44.271Z,88.20
2019-03-26T04:13:12.741Z,88.29
2019-03-26T04:15:41.232Z,88.84
2019-03-26T04:18:09.791Z,89.00
2019-03-26T04:20:38.269Z,90.16
2019-03-26T04:23:06.752Z,89.37
2019-03-26T04:25:35.202Z,90.61
2019-03-26T04:28:03.866Z,89.48
2019-03-26T04:30:32.689Z,89.26
2019-03-26T04:33:01.328Z,89.29
2019-03-26T04:35:30.092Z,89.65
2019-03-26T04:37:58.636Z,89.62
2019-03-26T04:40:27.113Z,89.94
2019-03-26T04:42:55.966Z,89.96
2019-03-26T04:45:24.435Z,91.50
2019-03-26T04:47:52.928Z,91.20
2019-03-26T04:50:21.409Z,90.03
2019-03-26T04:52:49.904Z,89.75
2019-03-26T04:55:18.367Z,91.07
2019-03-26T04:57:46.882Z,90.17
2019-03-26T05:00:15.885Z,91.38
2019-03-26T05:02:44.368Z,91.15
2019-03-26T05:05:12.921Z,91.67
2019-03-26T05:07:41.399Z,91.59
2019-03-26T05:10:10.005Z,92.29
2019-03-26T05:12:38.572Z,91.93
2019-03-26T05:15:07.890Z,92.24
2019-03-26T05:17:36.386Z,91.93
2019-03-26T05:20:06.704Z,92.47
2019-03-26T05:22:35.674Z,91.79
2019-03-26T05:25:06.578Z,91.64
2019-03-26T05:27:45.354Z,91.46
2019-03-26T05:30:09.714Z,91.37
2019-03-26T05:32:38.196Z,92.60
2019-03-26T05:35:07.105Z,92.47
2019-03-26T05:37:35.870Z,92.71
2019-03-26T05:40:06.797Z,92.33
2019-03-26T05:42:35.262Z,93.43
2019-03-26T05:45:04.718Z,93.55
2019-03-26T05:47:33.224Z,93.63
2019-03-26T05:50:01.728Z,93.84
2019-03-26T05:52:30.217Z,94.31
2019-03-26T05:54:58.680Z,94.23
2019-03-26T05:57:27.180Z,94.22
2019-03-26T05:59:55.647Z,94.08
2019-03-26T06:02:24.165Z,94.14
2019-03-26T06:04:52.648Z,93.43
2019-03-26T06:07:21.115Z,92.86
2019-03-26T06:09:49.667Z,92.16
2019-03-26T06:12:18.138Z,91.48
2019-03-26T06:14:46.636Z,91.55
2019-03-26T06:17:15.103Z,91.16
2019-03-26T06:19:43.600Z,90.46
2019-03-26T06:22:12.066Z,90.21
2019-03-26T06:24:40.559Z,90.12
2019-03-26T06:27:09.040Z,89.51
2019-03-26T06:29:37.526Z,89.63
2019-03-26T06:32:06.003Z,89.12
2019-03-26T06:34:34.484Z,88.89
2019-03-26T06:37:02.965Z,88.30
2019-03-26T06:39:31.534Z,88.07
2019-03-26T06:42:00.011Z,87.88
2019-03-26T06:44:28.504Z,87.50
2019-03-26T06:46:56.973Z,87.16
2019-03-26T06:49:25.500Z,86.64
2019-03-26T06:51:53.954Z,86.63
2019-03-26T06:54:22.490Z,86.46
2019-03-26T06:56:50.975Z,86.06
2019-03-26T06:59:19.475Z,85.73
2019-03-26T07:01:47.947Z,85.33
2019-03-26T07:04:16.451Z,84.96
2019-03-26T07:06:44.941Z,84.81
2019-03-26T07:09:13.454Z,84.29
2019-03-26T07:11:41.901Z,84.02
2019-03-26T07:14:10.387Z,83.96
2019-03-26T07:16:38.847Z,83.52
2019-03-26T07:19:07.371Z,83.47
2019-03-26T07:21:48.932Z,83.38
2019-03-26T07:24:06.051Z,83.04
2019-03-26T07:26:34.625Z,82.91
2019-03-26T07:29:03.126Z,82.81
2019-03-26T07:31:31.634Z,82.82
2019-03-26T07:34:00.142Z,82.27
2019-03-26T07:36:28.617Z,81.70
2019-03-26T07:38:57.114Z,82.03
2019-03-26T07:41:25.580Z,81.51
2019-03-26T07:43:54.101Z,81.28
2019-03-26T07:46:22.562Z,79.59
2019-03-26T07:48:51.059Z,77.51
2019-03-26T07:51:19.526Z,79.13
2019-03-26T07:53:48.075Z,76.60
2019-03-26T07:56:16.519Z,79.63
2019-03-26T07:58:45.037Z,79.22
2019-03-26T08:01:13.502Z,79.01
2019-03-26T08:03:42.030Z,78.79
2019-03-26T08:06:10.510Z,77.71
2019-03-26T08:21:31.971Z,77.29
2019-03-26T09:32:09.588Z,68.00
2019-03-26T09:34:38.079Z,67.88
2019-03-26T09:37:06.567Z,67.51
2019-03-26T09:39:38.202Z,65.65
2019-03-26T09:42:05.296Z,65.98
2019-03-26T09:44:33.780Z,66.30
2019-03-26T09:47:15.240Z,66.30
2019-03-26T09:49:32.579Z,65.77
2019-03-26T09:52:01.128Z,66.37
2019-03-26T09:54:29.534Z,66.59
2019-03-26T09:56:58.041Z,66.01
2019-03-26T09:59:26.503Z,66.50
2019-03-26T10:01:55.003Z,68.63
2019-03-26T10:04:23.477Z,68.76
2019-03-26T10:06:51.984Z,68.98
2019-03-26T10:09:20.462Z,69.07
2019-03-26T10:11:48.963Z,68.55
2019-03-26T10:14:17.451Z,68.17
2019-03-26T10:16:45.980Z,68.94
2019-03-26T10:19:16.881Z,65.62
2019-03-26T10:21:44.687Z,65.23
2019-03-26T10:24:13.150Z,65.95
2019-03-26T10:26:41.646Z,66.74
2019-03-26T10:29:28.794Z,65.05
2019-03-26T10:31:40.800Z,66.31
2019-03-26T10:34:09.260Z,66.22
2019-03-26T10:36:38.140Z,67.21
2019-03-26T10:39:08.463Z,66.35
2019-03-26T10:41:36.945Z,65.79
2019-03-26T10:44:05.420Z,66.01
2019-03-26T10:46:33.937Z,66.87
2019-03-26T10:49:02.399Z,66.95
2019-03-26T10:51:30.924Z,69.14
2019-03-26T10:53:59.405Z,68.89
2019-03-26T10:56:27.987Z,68.65
2019-03-26T10:58:56.512Z,69.43
2019-03-26T11:01:24.994Z,69.12
2019-03-26T11:03:53.566Z,69.54
2019-03-26T11:06:22.045Z,69.35
2019-03-26T11:08:50.646Z,68.47
2019-03-26T11:11:19.166Z,68.28
2019-03-26T11:13:47.663Z,67.14
2019-03-26T11:16:16.144Z,67.46
2019-03-26T11:18:44.830Z,66.41
2019-03-26T11:21:13.291Z,66.46
2019-03-26T11:23:41.776Z,66.27
2019-03-26T11:26:10.236Z,66.26
2019-03-26T11:28:38.717Z,66.49
2019-03-26T11:31:07.196Z,66.35
2019-03-26T11:33:35.685Z,65.86
2019-03-26T11:36:04.338Z,66.80
2019-03-26T11:38:32.826Z,66.91
2019-03-26T11:41:01.324Z,67.09
2019-03-26T11:43:29.812Z,67.03
2019-03-26T11:45:58.288Z,67.39
2019-03-26T11:48:26.767Z,67.64
2019-03-26T11:50:55.438Z,67.37
2019-03-26T11:53:23.945Z,67.46
2019-03-26T11:55:52.421Z,67.66
2019-03-26T11:58:30.578Z,67.75
2019-03-26T12:00:51.113Z,67.74
2019-03-26T12:03:19.608Z,68.02
2019-03-26T12:05:48.079Z,67.98
2019-03-26T12:08:16.562Z,68.92
2019-03-26T12:10:45.048Z,69.10
2019-03-26T12:13:13.522Z,69.30
2019-03-26T12:15:42.185Z,73.73
2019-03-26T12:18:10.688Z,72.22
2019-03-26T12:20:39.183Z,74.06
2019-03-26T12:23:07.903Z,78.24
2019-03-26T12:25:36.382Z,79.71
2019-03-26T12:28:05.119Z,82.38
2019-03-26T12:30:36.008Z,80.71
2019-03-26T12:33:05.267Z,81.77
2019-03-26T12:35:33.705Z,79.23
2019-03-26T12:38:05.262Z,82.35
2019-03-26T12:40:33.794Z,81.72
2019-03-26T12:43:02.260Z,82.99
2019-03-26T12:45:30.753Z,85.34
2019-03-26T12:47:59.231Z,85.62
2019-03-26T12:50:27.817Z,83.86
2019-03-26T12:52:56.303Z,83.89
2019-03-26T12:55:24.817Z,81.42
2019-03-26T12:57:53.291Z,83.51
2019-03-26T13:00:24.852Z,81.86
2019-03-26T13:02:53.329Z,82.79
2019-03-26T13:05:23.255Z,84.17
2019-03-26T13:07:51.877Z,84.28
2019-03-26T13:10:21.291Z,81.92
2019-03-26T13:12:49.772Z,82.33
2019-03-26T13:15:18.272Z,84.29
2019-03-26T13:17:46.743Z,83.18
2019-03-26T13:20:15.471Z,84.42
2019-03-26T13:22:43.965Z,86.08
2019-03-26T13:25:13.179Z,84.22
2019-03-26T13:27:41.594Z,84.64
2019-03-26T13:30:10.619Z,83.80
2019-03-26T13:32:39.085Z,83.18
2019-03-26T13:35:08.025Z,81.53
2019-03-26T13:37:36.513Z,84.74
2019-03-26T13:40:06.423Z,83.64
2019-03-26T13:42:34.897Z,84.85
2019-03-26T13:45:03.766Z,84.73
2019-03-26T13:47:32.244Z,84.29
2019-03-26T13:50:00.728Z,85.08
2019-03-26T13:52:29.211Z,83.57
2019-03-26T13:54:57.692Z,85.22
2019-03-26T13:57:26.168Z,83.44
2019-03-26T13:59:54.723Z,82.88
2019-03-26T14:02:23.215Z,83.36
2019-03-26T14:04:51.684Z,82.65
2019-03-26T14:07:20.167Z,82.18
2019-03-26T14:09:48.632Z,82.02
2019-03-26T14:12:17.135Z,82.51
2019-03-26T14:14:45.627Z,84.38
2019-03-26T14:17:14.113Z,84.34
2019-03-26T14:19:42.581Z,85.72
2019-03-26T14:22:11.093Z,85.85
2019-03-26T14:24:39.548Z,84.70
2019-03-26T14:27:08.066Z,84.54
2019-03-26T14:29:36.704Z,83.01
2019-03-26T14:32:05.285Z,82.39
2019-03-26T14:34:33.864Z,81.69
2019-03-26T14:37:02.375Z,81.68
2019-03-26T14:39:30.847Z,82.61
2019-03-26T14:41:59.388Z,83.33
2019-03-26T14:44:27.839Z,84.92
2019-03-26T14:46:56.322Z,83.90
2019-03-26T14:49:24.786Z,85.14
2019-03-26T14:51:53.307Z,85.53
2019-03-26T14:54:21.795Z,85.30
2019-03-26T14:56:50.347Z,83.60
2019-03-26T14:59:18.800Z,83.22
2019-03-26T15:01:47.326Z,84.88
2019-03-26T15:04:15.754Z,85.43
2019-03-26T15:06:44.247Z,85.16
2019-03-26T15:09:12.727Z,83.62
2019-03-26T15:11:41.240Z,84.60
2019-03-26T15:14:09.692Z,85.11
2019-03-26T15:16:38.203Z,84.98
2019-03-26T15:19:06.682Z,83.19
2019-03-26T15:21:35.185Z,82.09
2019-03-26T15:24:03.904Z,82.00
2019-03-26T15:26:32.405Z,80.53
2019-03-26T15:29:00.893Z,79.11
2019-03-26T15:31:29.405Z,78.33
2019-03-26T15:33:57.838Z,79.10
2019-03-26T15:36:26.325Z,78.58
2019-03-26T15:38:54.839Z,78.77
2019-03-26T15:41:23.303Z,77.84
2019-03-26T15:43:51.790Z,76.45
2019-03-26T15:46:20.284Z,76.56
2019-03-26T15:48:48.788Z,75.56
2019-03-26T15:51:17.276Z,75.40
2019-03-26T15:53:45.783Z,75.34
2019-03-26T15:56:14.245Z,75.54
2019-03-26T15:58:42.741Z,75.08
2019-03-26T16:01:11.205Z,73.88
2019-03-26T16:03:39.787Z,74.26
2019-03-26T16:06:08.240Z,74.56
2019-03-26T16:08:36.727Z,73.81
2019-03-26T16:11:05.214Z,73.77
2019-03-26T16:13:35.748Z,73.34
2019-03-26T16:16:03.915Z,73.54
2019-03-26T16:18:32.416Z,72.38
2019-03-26T16:21:00.875Z,72.46
2019-03-26T16:23:29.372Z,72.82
2019-03-26T16:25:57.836Z,71.81
2019-03-26T16:28:26.338Z,72.29
2019-03-26T16:30:54.846Z,71.52
2019-03-26T16:33:23.346Z,72.25
2019-03-26T16:35:51.885Z,72.09
2019-03-26T16:38:20.378Z,71.82
2019-03-26T16:40:48.861Z,71.86
2019-03-26T16:43:17.406Z,72.10
2019-03-26T16:45:45.909Z,72.26
2019-03-26T16:48:14.471Z,72.07
2019-03-26T16:50:42.936Z,72.01
2019-03-26T16:53:11.461Z,71.79
2019-03-26T16:55:39.963Z,71.88
2019-03-26T16:58:08.468Z,72.00
2019-03-26T17:00:37.011Z,72.03
2019-03-26T17:03:05.572Z,72.10
2019-03-26T17:05:34.035Z,72.01
2019-03-26T17:08:02.616Z,72.25
2019-03-26T17:10:31.255Z,72.34
2019-03-26T17:12:59.824Z,71.20
2019-03-26T17:15:28.307Z,71.31
2019-03-26T17:17:56.774Z,70.76
2019-03-26T17:20:25.325Z,70.60
2019-03-26T17:22:53.807Z,70.84
2019-03-26T17:25:22.375Z,70.68
2019-03-26T17:27:50.839Z,70.51
2019-03-26T17:30:19.420Z,70.66
2019-03-26T17:32:47.933Z,70.72
2019-03-26T17:35:16.416Z,70.81
2019-03-26T17:37:58.575Z,71.08
2019-03-26T17:40:15.241Z,71.10
2019-03-26T17:42:43.704Z,71.28
2019-03-26T17:45:12.422Z,71.24
2019-03-26T17:47:40.883Z,71.64
2019-03-26T17:50:09.726Z,71.45
2019-03-26T17:52:38.179Z,72.67
2019-03-26T17:55:09.558Z,71.69
2019-03-26T17:57:38.028Z,71.88
2019-03-26T18:00:12.400Z,71.92
2019-03-26T18:02:40.870Z,72.03
2019-03-26T18:05:12.500Z,71.85
2019-03-26T18:07:40.991Z,71.77
2019-03-26T18:10:09.631Z,71.94
2019-03-26T18:12:38.089Z,72.03
2019-03-26T18:15:06.754Z,72.06
2019-03-26T18:17:35.261Z,71.74
2019-03-26T18:20:04.448Z,71.60
2019-03-26T18:22:32.926Z,71.62
2019-03-26T18:25:01.424Z,71.52
2019-03-26T18:27:29.924Z,71.63
2019-03-26T18:29:58.471Z,72.33
2019-03-26T18:32:26.943Z,72.13
2019-03-26T18:34:55.442Z,71.83
2019-03-26T18:37:23.931Z,72.40
2019-03-26T18:39:52.405Z,71.97
2019-03-26T18:42:20.884Z,72.28
2019-03-26T18:44:49.374Z,71.91
2019-03-26T18:47:17.853Z,71.82
2019-03-26T18:49:46.385Z,71.75
2019-03-26T18:52:14.846Z,71.84
2019-03-26T18:54:43.347Z,72.23
2019-03-26T18:57:11.814Z,73.16
2019-03-26T18:59:40.293Z,72.90
2019-03-26T19:02:08.799Z,73.56
2019-03-26T19:04:37.288Z,73.09
2019-03-26T19:07:05.756Z,73.28
2019-03-26T19:09:34.222Z,73.89
2019-03-26T19:12:02.720Z,73.71
2019-03-26T19:14:31.208Z,73.78
2019-03-26T19:16:59.874Z,73.95
2019-03-26T19:19:28.453Z,74.17
2019-03-26T19:21:56.943Z,74.79
2019-03-26T19:24:25.433Z,74.86
2019-03-26T19:26:53.945Z,74.61
2019-03-26T19:29:22.409Z,74.57
2019-03-26T19:31:50.920Z,74.63
2019-03-26T19:34:19.406Z,74.92
2019-03-26T19:36:47.946Z,75.08
2019-03-26T19:39:16.429Z,75.15
2019-03-26T19:41:44.917Z,75.28
2019-03-26T19:44:13.473Z,75.73
2019-03-26T19:46:41.975Z,75.36
2019-03-26T19:49:10.455Z,75.78
2019-03-26T19:51:38.965Z,76.22
2019-03-26T19:54:07.456Z,76.83
2019-03-26T19:56:35.926Z,76.39
2019-03-26T19:59:04.397Z,75.89
2019-03-26T20:01:32.898Z,76.01
2019-03-26T20:04:01.376Z,76.30
2019-03-26T20:06:29.869Z,76.03
2019-03-26T20:08:58.403Z,75.96
2019-03-26T20:11:26.844Z,76.19
2019-03-26T20:13:55.325Z,76.29
2019-03-26T20:16:27.111Z,76.10
2019-03-26T20:18:54.369Z,76.09
2019-03-26T20:21:22.917Z,76.21
2019-03-26T20:23:51.377Z,76.39
2019-03-26T20:26:19.882Z,76.23
2019-03-26T20:28:48.370Z,76.45
2019-03-26T20:31:16.839Z,76.75
2019-03-26T20:33:45.305Z,77.19
2019-03-26T20:36:13.839Z,77.03
2019-03-26T20:38:42.290Z,76.72
2019-03-26T20:41:10.789Z,77.18
2019-03-26T20:43:39.258Z,76.82
2019-03-26T20:46:07.740Z,77.56
2019-03-26T20:48:36.386Z,77.67
2019-03-26T20:51:04.856Z,77.99
2019-03-26T20:53:33.344Z,77.58
2019-03-26T20:56:02.185Z,77.81
2019-03-26T20:58:31.022Z,77.59
2019-03-26T21:00:59.504Z,77.45
2019-03-26T21:03:28.030Z,78.27
2019-03-26T21:05:56.503Z,77.45
2019-03-26T21:08:24.990Z,77.71
2019-03-26T21:10:53.475Z,77.63
2019-03-26T21:13:21.986Z,77.74
2019-03-26T21:15:57.057Z,77.96
2019-03-26T21:18:20.760Z,78.19
2019-03-26T21:20:49.225Z,78.87
2019-03-26T21:23:17.725Z,78.62
2019-03-26T21:25:46.204Z,78.33
2019-03-26T21:28:14.702Z,79.47
2019-03-26T21:30:43.268Z,79.82
2019-03-26T21:33:11.763Z,81.04
2019-03-26T21:35:40.240Z,79.62
2019-03-26T21:38:08.745Z,82.65
2019-03-26T21:40:37.197Z,80.25
2019-03-26T21:43:06.120Z,80.98
2019-03-26T21:45:38.715Z,81.69
2019-03-26T21:48:07.934Z,80.92
2019-03-26T21:50:36.478Z,80.15
2019-03-26T21:53:05.022Z,80.24
2019-03-26T21:55:33.500Z,80.13
2019-03-26T21:58:01.989Z,81.07
2019-03-26T22:00:30.464Z,83.01
2019-03-26T22:02:58.943Z,80.97
2019-03-26T22:05:27.428Z,81.34
2019-03-26T22:07:55.932Z,81.08
2019-03-26T22:10:24.396Z,80.46
2019-03-26T22:12:52.903Z,80.59
2019-03-26T22:15:21.439Z,81.64
2019-03-26T22:17:49.923Z,81.64
2019-03-26T22:20:18.393Z,81.19
2019-03-26T22:22:46.943Z,80.97
2019-03-26T22:25:15.512Z,80.82
2019-03-26T22:27:44.010Z,80.79
2019-03-26T22:30:13.349Z,81.73
2019-03-26T22:32:41.849Z,80.68
2019-03-26T22:35:10.963Z,81.38
2019-03-26T22:37:39.422Z,81.52
2019-03-26T22:40:09.721Z,82.11
2019-03-26T22:42:38.213Z,81.48
2019-03-26T22:45:08.984Z,81.61
2019-03-26T22:47:39.120Z,81.74
2019-03-26T22:50:08.973Z,81.69
2019-03-26T22:52:40.578Z,81.86
2019-03-26T22:55:10.480Z,82.09
2019-03-26T22:57:39.282Z,82.00
2019-03-26T23:00:19.167Z,82.12
2019-03-26T23:02:47.700Z,81.75
2019-03-26T23:05:16.759Z,82.45
2019-03-26T23:07:45.224Z,82.49
2019-03-26T23:10:15.057Z,82.72
2019-03-26T23:12:43.585Z,82.46
2019-03-26T23:15:21.079Z,83.08
2019-03-26T23:17:49.761Z,84.37
2019-03-26T23:20:18.550Z,83.49
2019-03-26T23:22:47.098Z,83.15
2019-03-26T23:25:16.040Z,83.11
2019-03-26T23:27:46.019Z,83.64
2019-03-26T23:30:15.143Z,83.45
2019-03-26T23:32:43.615Z,83.42
2019-03-26T23:35:12.396Z,83.67
2019-03-26T23:37:40.882Z,83.58
2019-03-26T23:40:09.685Z,83.96
2019-03-26T23:42:38.163Z,84.06
2019-03-26T23:45:08.392Z,84.43
2019-03-26T23:47:36.866Z,83.66
2019-03-26T23:50:08.270Z,83.35
2019-03-26T23:52:37.182Z,83.83
2019-03-26T23:55:08.984Z,85.15
2019-03-26T23:57:37.787Z,84.13
